sensor_id;sensor_type;location;lat;lon;timestamp;P1;durP1;ratioP1;P2;durP2;ratioP2
62332;SDS011;48624;49.812;8.562;2022-09-21T00:01:24;7.13;;;4.70;;
62332;SDS011;48624;49.812;8.562;2022-09-21T00:03:55;12.05;;;4.85;;
62332;SDS011;48624;49.812;8.562;2022-09-21T00:06:29;6.15;;;4.55;;
62332;SDS011;48624;49.812;8.562;2022-09-21T00:08:56;9.05;;;4.45;;
62332;SDS011;48624;49.812;8.562;2022-09-21T00:11:27;7.75;;;5.28;;
62332;SDS011;48624;49.812;8.562;2022-09-21T00:13:55;7.78;;;5.10;;
62332;SDS011;48624;49.812;8.562;2022-09-21T00:16:24;8.32;;;4.55;;
62332;SDS011;48624;49.812;8.562;2022-09-21T00:18:50;8.38;;;5.00;;
62332;SDS011;48624;49.812;8.562;2022-09-21T00:21:16;5.57;;;4.60;;
62332;SDS011;48624;49.812;8.562;2022-09-21T00:23:42;7.93;;;5.40;;
62332;SDS011;48624;49.812;8.562;2022-09-21T00:26:12;6.28;;;5.43;;
62332;SDS011;48624;49.812;8.562;2022-09-21T00:28:39;11.68;;;5.18;;
62332;SDS011;48624;49.812;8.562;2022-09-21T00:31:05;5.93;;;5.05;;
62332;SDS011;48624;49.812;8.562;2022-09-21T00:33:33;12.73;;;5.32;;
62332;SDS011;48624;49.812;8.562;2022-09-21T00:36:05;7.07;;;5.38;;
62332;SDS011;48624;49.812;8.562;2022-09-21T00:38:33;8.20;;;4.35;;
62332;SDS011;48624;49.812;8.562;2022-09-21T00:41:00;6.82;;;5.07;;
62332;SDS011;48624;49.812;8.562;2022-09-21T00:43:28;6.72;;;4.70;;
62332;SDS011;48624;49.812;8.562;2022-09-21T00:45:56;8.77;;;5.03;;
62332;SDS011;48624;49.812;8.562;2022-09-21T00:48:25;8.80;;;5.57;;
62332;SDS011;48624;49.812;8.562;2022-09-21T00:50:53;7.60;;;4.50;;
62332;SDS011;48624;49.812;8.562;2022-09-21T00:53:22;7.72;;;4.85;;
62332;SDS011;48624;49.812;8.562;2022-09-21T00:55:49;7.47;;;5.05;;
62332;SDS011;48624;49.812;8.562;2022-09-21T00:58:20;6.55;;;4.38;;
62332;SDS011;48624;49.812;8.562;2022-09-21T01:00:50;8.95;;;4.50;;
62332;SDS011;48624;49.812;8.562;2022-09-21T01:03:16;8.38;;;4.43;;
62332;SDS011;48624;49.812;8.562;2022-09-21T01:05:41;8.88;;;4.53;;
62332;SDS011;48624;49.812;8.562;2022-09-21T01:08:06;11.05;;;4.65;;
62332;SDS011;48624;49.812;8.562;2022-09-21T01:10:54;11.52;;;4.95;;
62332;SDS011;48624;49.812;8.562;2022-09-21T01:13:56;7.35;;;5.30;;
62332;SDS011;48624;49.812;8.562;2022-09-21T01:20:04;9.80;;;4.68;;
62332;SDS011;48624;49.812;8.562;2022-09-21T01:22:45;7.30;;;5.55;;
62332;SDS011;48624;49.812;8.562;2022-09-21T01:31:15;5.40;;;4.85;;
62332;SDS011;48624;49.812;8.562;2022-09-21T01:33:50;8.13;;;4.78;;
62332;SDS011;48624;49.812;8.562;2022-09-21T01:36:19;7.15;;;5.38;;
62332;SDS011;48624;49.812;8.562;2022-09-21T01:38:53;6.85;;;5.20;;
62332;SDS011;48624;49.812;8.562;2022-09-21T01:41:23;7.73;;;5.63;;
62332;SDS011;48624;49.812;8.562;2022-09-21T01:43:54;9.82;;;5.78;;
62332;SDS011;48624;49.812;8.562;2022-09-21T01:46:24;6.68;;;5.57;;
62332;SDS011;48624;49.812;8.562;2022-09-21T01:48:53;9.02;;;5.22;;
62332;SDS011;48624;49.812;8.562;2022-09-21T01:51:22;7.82;;;5.50;;
62332;SDS011;48624;49.812;8.562;2022-09-21T01:54:02;7.93;;;5.72;;
62332;SDS011;48624;49.812;8.562;2022-09-21T02:01:46;8.80;;;5.50;;
62332;SDS011;48624;49.812;8.562;2022-09-21T02:04:17;9.93;;;4.88;;
62332;SDS011;48624;49.812;8.562;2022-09-21T02:06:44;8.32;;;5.00;;
62332;SDS011;48624;49.812;8.562;2022-09-21T02:09:11;8.57;;;5.88;;
62332;SDS011;48624;49.812;8.562;2022-09-21T02:11:36;8.40;;;5.18;;
62332;SDS011;48624;49.812;8.562;2022-09-21T02:14:09;6.78;;;5.22;;
62332;SDS011;48624;49.812;8.562;2022-09-21T02:16:47;8.35;;;5.60;;
62332;SDS011;48624;49.812;8.562;2022-09-21T02:19:28;10.10;;;5.82;;
62332;SDS011;48624;49.812;8.562;2022-09-21T02:22:04;12.65;;;6.00;;
62332;SDS011;48624;49.812;8.562;2022-09-21T02:27:14;12.00;;;5.23;;
62332;SDS011;48624;49.812;8.562;2022-09-21T02:46:33;8.43;;;5.07;;
62332;SDS011;48624;49.812;8.562;2022-09-21T02:49:03;8.63;;;5.47;;
62332;SDS011;48624;49.812;8.562;2022-09-21T02:51:38;8.88;;;5.22;;
62332;SDS011;48624;49.812;8.562;2022-09-21T02:54:07;8.95;;;5.47;;
62332;SDS011;48624;49.812;8.562;2022-09-21T02:56:37;9.88;;;5.68;;
62332;SDS011;48624;49.812;8.562;2022-09-21T02:59:05;10.05;;;5.32;;
62332;SDS011;48624;49.812;8.562;2022-09-21T03:01:31;6.63;;;5.47;;
62332;SDS011;48624;49.812;8.562;2022-09-21T03:03:57;10.10;;;6.22;;
62332;SDS011;48624;49.812;8.562;2022-09-21T03:06:23;16.95;;;11.13;;
62332;SDS011;48624;49.812;8.562;2022-09-21T03:08:48;12.57;;;6.50;;
62332;SDS011;48624;49.812;8.562;2022-09-21T03:11:17;8.90;;;6.28;;
62332;SDS011;48624;49.812;8.562;2022-09-21T03:13:43;9.43;;;6.53;;
62332;SDS011;48624;49.812;8.562;2022-09-21T03:16:09;8.63;;;5.75;;
62332;SDS011;48624;49.812;8.562;2022-09-21T03:18:35;12.10;;;6.30;;
62332;SDS011;48624;49.812;8.562;2022-09-21T03:21:00;8.40;;;5.88;;
62332;SDS011;48624;49.812;8.562;2022-09-21T03:23:27;11.10;;;6.60;;
62332;SDS011;48624;49.812;8.562;2022-09-21T03:25:52;8.18;;;5.97;;
62332;SDS011;48624;49.812;8.562;2022-09-21T03:28:18;8.60;;;6.07;;
62332;SDS011;48624;49.812;8.562;2022-09-21T03:30:44;9.73;;;6.35;;
62332;SDS011;48624;49.812;8.562;2022-09-21T03:33:10;9.30;;;6.10;;
62332;SDS011;48624;49.812;8.562;2022-09-21T03:35:37;10.05;;;6.38;;
62332;SDS011;48624;49.812;8.562;2022-09-21T03:38:02;9.70;;;6.05;;
62332;SDS011;48624;49.812;8.562;2022-09-21T03:40:28;8.32;;;6.13;;
62332;SDS011;48624;49.812;8.562;2022-09-21T03:42:53;8.40;;;6.18;;
62332;SDS011;48624;49.812;8.562;2022-09-21T03:45:19;10.75;;;6.90;;
62332;SDS011;48624;49.812;8.562;2022-09-21T03:47:51;9.73;;;7.18;;
62332;SDS011;48624;49.812;8.562;2022-09-21T03:50:21;12.93;;;7.22;;
62332;SDS011;48624;49.812;8.562;2022-09-21T03:52:47;12.37;;;7.47;;
62332;SDS011;48624;49.812;8.562;2022-09-21T03:55:12;13.45;;;7.47;;
62332;SDS011;48624;49.812;8.562;2022-09-21T03:57:38;16.23;;;8.73;;
62332;SDS011;48624;49.812;8.562;2022-09-21T04:00:07;16.73;;;7.35;;
62332;SDS011;48624;49.812;8.562;2022-09-21T04:02:35;15.50;;;8.68;;
62332;SDS011;48624;49.812;8.562;2022-09-21T04:05:00;19.02;;;9.45;;
62332;SDS011;48624;49.812;8.562;2022-09-21T04:07:29;15.68;;;9.25;;
62332;SDS011;48624;49.812;8.562;2022-09-21T04:09:56;14.25;;;9.52;;
62332;SDS011;48624;49.812;8.562;2022-09-21T04:12:21;15.47;;;8.97;;
62332;SDS011;48624;49.812;8.562;2022-09-21T04:14:46;15.80;;;9.05;;
62332;SDS011;48624;49.812;8.562;2022-09-21T04:17:14;14.03;;;8.23;;
62332;SDS011;48624;49.812;8.562;2022-09-21T04:19:40;21.60;;;10.32;;
62332;SDS011;48624;49.812;8.562;2022-09-21T04:22:05;18.53;;;10.23;;
62332;SDS011;48624;49.812;8.562;2022-09-21T04:24:30;14.13;;;8.95;;
62332;SDS011;48624;49.812;8.562;2022-09-21T04:26:57;15.52;;;9.13;;
62332;SDS011;48624;49.812;8.562;2022-09-21T04:29:22;14.60;;;9.77;;
62332;SDS011;48624;49.812;8.562;2022-09-21T04:31:47;13.13;;;8.87;;
62332;SDS011;48624;49.812;8.562;2022-09-21T04:34:13;16.10;;;9.60;;
62332;SDS011;48624;49.812;8.562;2022-09-21T04:36:38;13.43;;;8.53;;
62332;SDS011;48624;49.812;8.562;2022-09-21T04:39:04;15.67;;;9.27;;
62332;SDS011;48624;49.812;8.562;2022-09-21T04:41:30;15.85;;;8.98;;
62332;SDS011;48624;49.812;8.562;2022-09-21T04:43:55;18.97;;;9.87;;
62332;SDS011;48624;49.812;8.562;2022-09-21T04:46:21;16.88;;;9.80;;
62332;SDS011;48624;49.812;8.562;2022-09-21T04:48:46;17.63;;;10.33;;
62332;SDS011;48624;49.812;8.562;2022-09-21T04:51:13;19.77;;;9.57;;
62332;SDS011;48624;49.812;8.562;2022-09-21T04:53:40;14.93;;;10.00;;
62332;SDS011;48624;49.812;8.562;2022-09-21T04:56:07;16.87;;;10.20;;
62332;SDS011;48624;49.812;8.562;2022-09-21T04:58:34;17.50;;;10.27;;
62332;SDS011;48624;49.812;8.562;2022-09-21T05:01:00;17.52;;;9.80;;
62332;SDS011;48624;49.812;8.562;2022-09-21T05:03:26;17.30;;;9.57;;
62332;SDS011;48624;49.812;8.562;2022-09-21T05:05:52;13.90;;;8.80;;
62332;SDS011;48624;49.812;8.562;2022-09-21T05:08:19;14.10;;;9.15;;
62332;SDS011;48624;49.812;8.562;2022-09-21T05:11:08;16.40;;;9.80;;
62332;SDS011;48624;49.812;8.562;2022-09-21T05:13:37;17.03;;;10.37;;
62332;SDS011;48624;49.812;8.562;2022-09-21T05:16:03;17.17;;;10.17;;
62332;SDS011;48624;49.812;8.562;2022-09-21T05:18:28;14.93;;;10.03;;
62332;SDS011;48624;49.812;8.562;2022-09-21T05:20:54;16.50;;;9.53;;
62332;SDS011;48624;49.812;8.562;2022-09-21T05:23:21;17.42;;;10.38;;
62332;SDS011;48624;49.812;8.562;2022-09-21T05:25:46;13.85;;;9.98;;
62332;SDS011;48624;49.812;8.562;2022-09-21T05:28:12;21.30;;;8.65;;
62332;SDS011;48624;49.812;8.562;2022-09-21T05:30:37;17.57;;;11.17;;
62332;SDS011;48624;49.812;8.562;2022-09-21T05:33:03;13.30;;;9.65;;
62332;SDS011;48624;49.812;8.562;2022-09-21T05:38:16;13.57;;;8.63;;
62332;SDS011;48624;49.812;8.562;2022-09-21T05:40:44;13.30;;;8.80;;
62332;SDS011;48624;49.812;8.562;2022-09-21T05:43:14;22.13;;;9.90;;
62332;SDS011;48624;49.812;8.562;2022-09-21T05:45:41;14.93;;;9.50;;
62332;SDS011;48624;49.812;8.562;2022-09-21T05:48:22;13.33;;;8.97;;
62332;SDS011;48624;49.812;8.562;2022-09-21T05:51:01;17.97;;;10.10;;
62332;SDS011;48624;49.812;8.562;2022-09-21T05:56:06;15.60;;;10.10;;
62332;SDS011;48624;49.812;8.562;2022-09-21T06:03:51;16.33;;;10.17;;
62332;SDS011;48624;49.812;8.562;2022-09-21T06:06:18;17.90;;;9.98;;
62332;SDS011;48624;49.812;8.562;2022-09-21T06:08:44;17.30;;;10.02;;
62332;SDS011;48624;49.812;8.562;2022-09-21T06:11:09;16.60;;;10.90;;
62332;SDS011;48624;49.812;8.562;2022-09-21T06:13:35;17.57;;;11.17;;
62332;SDS011;48624;49.812;8.562;2022-09-21T06:16:01;21.45;;;11.48;;
62332;SDS011;48624;49.812;8.562;2022-09-21T06:18:27;19.73;;;11.98;;
62332;SDS011;48624;49.812;8.562;2022-09-21T06:20:53;17.63;;;11.18;;
62332;SDS011;48624;49.812;8.562;2022-09-21T06:23:18;17.77;;;11.38;;
62332;SDS011;48624;49.812;8.562;2022-09-21T06:25:43;19.27;;;10.30;;
62332;SDS011;48624;49.812;8.562;2022-09-21T06:28:09;17.13;;;11.15;;
62332;SDS011;48624;49.812;8.562;2022-09-21T06:30:37;17.20;;;11.18;;
62332;SDS011;48624;49.812;8.562;2022-09-21T06:33:04;18.75;;;11.25;;
62332;SDS011;48624;49.812;8.562;2022-09-21T06:35:31;19.90;;;12.00;;
62332;SDS011;48624;49.812;8.562;2022-09-21T06:38:05;23.75;;;13.15;;
62332;SDS011;48624;49.812;8.562;2022-09-21T06:40:32;19.48;;;11.55;;
62332;SDS011;48624;49.812;8.562;2022-09-21T06:42:59;16.30;;;10.52;;
62332;SDS011;48624;49.812;8.562;2022-09-21T06:45:27;21.17;;;12.45;;
62332;SDS011;48624;49.812;8.562;2022-09-21T06:47:53;21.42;;;12.85;;
62332;SDS011;48624;49.812;8.562;2022-09-21T06:50:19;19.73;;;14.07;;
62332;SDS011;48624;49.812;8.562;2022-09-21T06:52:45;19.08;;;12.98;;
62332;SDS011;48624;49.812;8.562;2022-09-21T06:55:10;22.77;;;12.20;;
62332;SDS011;48624;49.812;8.562;2022-09-21T06:57:36;19.60;;;12.10;;
62332;SDS011;48624;49.812;8.562;2022-09-21T07:00:05;21.55;;;13.90;;
62332;SDS011;48624;49.812;8.562;2022-09-21T07:02:33;25.77;;;13.15;;
62332;SDS011;48624;49.812;8.562;2022-09-21T07:04:59;21.33;;;11.75;;
62332;SDS011;48624;49.812;8.562;2022-09-21T07:07:24;20.17;;;13.55;;
62332;SDS011;48624;49.812;8.562;2022-09-21T07:09:50;20.55;;;12.60;;
62332;SDS011;48624;49.812;8.562;2022-09-21T07:12:19;18.67;;;12.13;;
62332;SDS011;48624;49.812;8.562;2022-09-21T07:14:44;18.15;;;13.68;;
62332;SDS011;48624;49.812;8.562;2022-09-21T07:17:10;20.10;;;13.35;;
62332;SDS011;48624;49.812;8.562;2022-09-21T07:19:38;18.02;;;12.73;;
62332;SDS011;48624;49.812;8.562;2022-09-21T07:22:04;16.70;;;11.77;;
62332;SDS011;48624;49.812;8.562;2022-09-21T07:24:29;20.15;;;13.23;;
62332;SDS011;48624;49.812;8.562;2022-09-21T07:26:55;17.95;;;12.43;;
62332;SDS011;48624;49.812;8.562;2022-09-21T07:29:20;23.20;;;13.38;;
62332;SDS011;48624;49.812;8.562;2022-09-21T07:31:45;16.92;;;11.23;;
62332;SDS011;48624;49.812;8.562;2022-09-21T07:34:12;16.85;;;11.15;;
62332;SDS011;48624;49.812;8.562;2022-09-21T07:36:37;15.65;;;11.70;;
62332;SDS011;48624;49.812;8.562;2022-09-21T07:39:02;15.20;;;11.88;;
62332;SDS011;48624;49.812;8.562;2022-09-21T07:41:28;14.13;;;10.25;;
62332;SDS011;48624;49.812;8.562;2022-09-21T07:43:53;15.15;;;10.70;;
62332;SDS011;48624;49.812;8.562;2022-09-21T07:46:18;14.70;;;10.20;;
62332;SDS011;48624;49.812;8.562;2022-09-21T07:48:44;15.45;;;9.27;;
62332;SDS011;48624;49.812;8.562;2022-09-21T07:51:12;11.88;;;9.93;;
62332;SDS011;48624;49.812;8.562;2022-09-21T07:53:39;10.73;;;8.35;;
62332;SDS011;48624;49.812;8.562;2022-09-21T07:56:08;12.77;;;8.98;;
62332;SDS011;48624;49.812;8.562;2022-09-21T07:58:35;10.63;;;7.78;;
62332;SDS011;48624;49.812;8.562;2022-09-21T08:01:20;9.13;;;7.68;;
62332;SDS011;48624;49.812;8.562;2022-09-21T08:03:49;9.07;;;7.97;;
62332;SDS011;48624;49.812;8.562;2022-09-21T08:06:15;10.32;;;7.00;;
62332;SDS011;48624;49.812;8.562;2022-09-21T08:08:41;9.45;;;7.15;;
62332;SDS011;48624;49.812;8.562;2022-09-21T08:11:07;7.72;;;6.78;;
62332;SDS011;48624;49.812;8.562;2022-09-21T08:13:33;12.82;;;8.02;;
62332;SDS011;48624;49.812;8.562;2022-09-21T08:15:59;8.38;;;6.43;;
62332;SDS011;48624;49.812;8.562;2022-09-21T08:18:25;7.90;;;6.47;;
62332;SDS011;48624;49.812;8.562;2022-09-21T08:20:55;7.90;;;6.20;;
62332;SDS011;48624;49.812;8.562;2022-09-21T08:23:21;6.78;;;6.03;;
62332;SDS011;48624;49.812;8.562;2022-09-21T08:25:56;8.88;;;5.90;;
62332;SDS011;48624;49.812;8.562;2022-09-21T08:28:24;7.80;;;5.72;;
62332;SDS011;48624;49.812;8.562;2022-09-21T08:30:49;6.35;;;5.15;;
62332;SDS011;48624;49.812;8.562;2022-09-21T08:33:15;7.95;;;5.93;;
62332;SDS011;48624;49.812;8.562;2022-09-21T08:35:40;8.65;;;5.72;;
62332;SDS011;48624;49.812;8.562;2022-09-21T08:38:05;9.80;;;5.30;;
62332;SDS011;48624;49.812;8.562;2022-09-21T08:40:32;7.60;;;4.38;;
62332;SDS011;48624;49.812;8.562;2022-09-21T08:43:09;6.15;;;4.65;;
62332;SDS011;48624;49.812;8.562;2022-09-21T08:45:38;5.28;;;3.97;;
62332;SDS011;48624;49.812;8.562;2022-09-21T08:48:09;6.72;;;3.63;;
62332;SDS011;48624;49.812;8.562;2022-09-21T08:50:44;7.15;;;3.58;;
62332;SDS011;48624;49.812;8.562;2022-09-21T08:53:15;8.38;;;4.00;;
62332;SDS011;48624;49.812;8.562;2022-09-21T08:55:43;6.00;;;3.78;;
62332;SDS011;48624;49.812;8.562;2022-09-21T08:58:19;4.53;;;2.90;;
62332;SDS011;48624;49.812;8.562;2022-09-21T09:00:47;5.70;;;3.20;;
62332;SDS011;48624;49.812;8.562;2022-09-21T09:06:28;7.22;;;3.33;;
62332;SDS011;48624;49.812;8.562;2022-09-21T09:15:05;3.78;;;2.40;;
62332;SDS011;48624;49.812;8.562;2022-09-21T09:17:47;3.80;;;2.72;;
62332;SDS011;48624;49.812;8.562;2022-09-21T09:20:54;2.72;;;2.25;;
62332;SDS011;48624;49.812;8.562;2022-09-21T09:23:23;5.20;;;2.42;;
62332;SDS011;48624;49.812;8.562;2022-09-21T09:26:37;3.92;;;2.28;;
62332;SDS011;48624;49.812;8.562;2022-09-21T09:28:46;3.47;;;2.00;;
62332;SDS011;48624;49.812;8.562;2022-09-21T09:31:34;2.53;;;1.73;;
62332;SDS011;48624;49.812;8.562;2022-09-21T09:34:11;5.45;;;1.85;;
62332;SDS011;48624;49.812;8.562;2022-09-21T09:36:46;4.75;;;1.45;;
62332;SDS011;48624;49.812;8.562;2022-09-21T09:39:15;3.05;;;1.73;;
62332;SDS011;48624;49.812;8.562;2022-09-21T09:50:10;2.22;;;0.68;;
62332;SDS011;48624;49.812;8.562;2022-09-21T09:52:46;1.65;;;0.60;;
62332;SDS011;48624;49.812;8.562;2022-09-21T09:57:44;1.60;;;0.50;;
62332;SDS011;48624;49.812;8.562;2022-09-21T10:00:14;2.45;;;1.10;;
62332;SDS011;48624;49.812;8.562;2022-09-21T10:02:46;2.35;;;0.43;;
62332;SDS011;48624;49.812;8.562;2022-09-21T10:05:30;2.13;;;0.40;;
62332;SDS011;48624;49.812;8.562;2022-09-21T10:07:57;1.67;;;0.60;;
62332;SDS011;48624;49.812;8.562;2022-09-21T10:10:25;1.45;;;0.68;;
62332;SDS011;48624;49.812;8.562;2022-09-21T10:13:02;0.57;;;0.28;;
62332;SDS011;48624;49.812;8.562;2022-09-21T10:15:29;2.35;;;0.40;;
62332;SDS011;48624;49.812;8.562;2022-09-21T10:18:14;2.05;;;0.68;;
62332;SDS011;48624;49.812;8.562;2022-09-21T10:21:00;2.78;;;0.50;;
62332;SDS011;48624;49.812;8.562;2022-09-21T10:23:29;1.23;;;0.60;;
62332;SDS011;48624;49.812;8.562;2022-09-21T10:28:24;1.48;;;0.65;;
62332;SDS011;48624;49.812;8.562;2022-09-21T10:31:06;3.10;;;1.17;;
62332;SDS011;48624;49.812;8.562;2022-09-21T10:33:51;3.65;;;1.15;;
62332;SDS011;48624;49.812;8.562;2022-09-21T10:36:31;3.53;;;1.00;;
62332;SDS011;48624;49.812;8.562;2022-09-21T10:39:18;1.48;;;0.80;;
62332;SDS011;48624;49.812;8.562;2022-09-21T10:41:48;1.73;;;0.80;;
62332;SDS011;48624;49.812;8.562;2022-09-21T10:44:16;3.80;;;1.08;;
62332;SDS011;48624;49.812;8.562;2022-09-21T10:46:44;1.13;;;0.75;;
62332;SDS011;48624;49.812;8.562;2022-09-21T10:49:32;0.82;;;0.50;;
62332;SDS011;48624;49.812;8.562;2022-09-21T10:51:57;1.48;;;0.75;;
62332;SDS011;48624;49.812;8.562;2022-09-21T10:54:27;1.65;;;0.70;;
62332;SDS011;48624;49.812;8.562;2022-09-21T10:56:56;1.73;;;0.60;;
62332;SDS011;48624;49.812;8.562;2022-09-21T10:59:37;1.98;;;0.80;;
62332;SDS011;48624;49.812;8.562;2022-09-21T11:04:54;2.70;;;0.75;;
62332;SDS011;48624;49.812;8.562;2022-09-21T11:07:29;2.92;;;0.80;;
62332;SDS011;48624;49.812;8.562;2022-09-21T11:12:41;2.35;;;0.60;;
62332;SDS011;48624;49.812;8.562;2022-09-21T11:15:13;0.73;;;0.60;;
62332;SDS011;48624;49.812;8.562;2022-09-21T11:18:04;2.67;;;0.77;;
62332;SDS011;48624;49.812;8.562;2022-09-21T11:20:42;1.05;;;0.60;;
62332;SDS011;48624;49.812;8.562;2022-09-21T11:23:25;0.88;;;0.65;;
62332;SDS011;48624;49.812;8.562;2022-09-21T11:26:22;2.20;;;1.00;;
62332;SDS011;48624;49.812;8.562;2022-09-21T11:29:10;1.38;;;0.70;;
62332;SDS011;48624;49.812;8.562;2022-09-21T11:43:35;0.40;;;0.35;;
62332;SDS011;48624;49.812;8.562;2022-09-21T11:49:16;0.93;;;0.85;;
62332;SDS011;48624;49.812;8.562;2022-09-21T11:58:04;0.93;;;0.40;;
62332;SDS011;48624;49.812;8.562;2022-09-21T12:12:35;1.50;;;0.77;;
62332;SDS011;48624;49.812;8.562;2022-09-21T12:15:11;1.25;;;0.75;;
62332;SDS011;48624;49.812;8.562;2022-09-21T12:21:04;2.25;;;0.40;;
62332;SDS011;48624;49.812;8.562;2022-09-21T12:23:42;1.55;;;0.50;;
62332;SDS011;48624;49.812;8.562;2022-09-21T12:26:26;1.85;;;0.70;;
62332;SDS011;48624;49.812;8.562;2022-09-21T12:34:52;0.88;;;0.40;;
62332;SDS011;48624;49.812;8.562;2022-09-21T12:37:27;0.90;;;0.40;;
62332;SDS011;48624;49.812;8.562;2022-09-21T12:40:12;2.15;;;0.47;;
62332;SDS011;48624;49.812;8.562;2022-09-21T12:45:41;0.82;;;0.35;;
62332;SDS011;48624;49.812;8.562;2022-09-21T12:48:27;1.08;;;0.40;;
62332;SDS011;48624;49.812;8.562;2022-09-21T12:50:54;1.20;;;0.50;;
62332;SDS011;48624;49.812;8.562;2022-09-21T12:53:21;0.85;;;0.55;;
62332;SDS011;48624;49.812;8.562;2022-09-21T13:13:21;1.55;;;0.65;;
62332;SDS011;48624;49.812;8.562;2022-09-21T13:15:53;1.30;;;0.50;;
62332;SDS011;48624;49.812;8.562;2022-09-21T13:18:23;1.95;;;0.40;;
62332;SDS011;48624;49.812;8.562;2022-09-21T13:20:52;3.55;;;0.45;;
62332;SDS011;48624;49.812;8.562;2022-09-21T13:23:23;2.00;;;0.65;;
62332;SDS011;48624;49.812;8.562;2022-09-21T13:26:06;3.30;;;1.30;;
62332;SDS011;48624;49.812;8.562;2022-09-21T13:28:40;1.95;;;0.65;;
62332;SDS011;48624;49.812;8.562;2022-09-21T13:31:51;2.22;;;1.10;;
62332;SDS011;48624;49.812;8.562;2022-09-21T13:39:35;2.65;;;0.52;;
62332;SDS011;48624;49.812;8.562;2022-09-21T13:42:47;0.40;;;0.40;;
62332;SDS011;48624;49.812;8.562;2022-09-21T13:47:43;0.40;;;0.30;;
62332;SDS011;48624;49.812;8.562;2022-09-21T13:50:13;2.95;;;0.43;;
62332;SDS011;48624;49.812;8.562;2022-09-21T13:52:54;1.15;;;0.43;;
62332;SDS011;48624;49.812;8.562;2022-09-21T14:03:19;1.67;;;0.45;;
62332;SDS011;48624;49.812;8.562;2022-09-21T14:05:52;0.60;;;0.43;;
62332;SDS011;48624;49.812;8.562;2022-09-21T14:08:22;1.55;;;0.50;;
62332;SDS011;48624;49.812;8.562;2022-09-21T14:11:08;2.78;;;0.40;;
62332;SDS011;48624;49.812;8.562;2022-09-21T14:24:45;1.30;;;0.20;;
62332;SDS011;48624;49.812;8.562;2022-09-21T14:30:18;0.60;;;0.38;;
62332;SDS011;48624;49.812;8.562;2022-09-21T14:35:32;0.80;;;0.30;;
62332;SDS011;48624;49.812;8.562;2022-09-21T14:41:05;2.47;;;0.47;;
62332;SDS011;48624;49.812;8.562;2022-09-21T14:43:35;2.65;;;1.70;;
62332;SDS011;48624;49.812;8.562;2022-09-21T14:55:08;2.25;;;0.50;;
62332;SDS011;48624;49.812;8.562;2022-09-21T15:00:42;0.73;;;0.40;;
62332;SDS011;48624;49.812;8.562;2022-09-21T15:05:55;1.88;;;0.40;;
62332;SDS011;48624;49.812;8.562;2022-09-21T15:12:16;0.60;;;0.30;;
62332;SDS011;48624;49.812;8.562;2022-09-21T15:14:53;1.40;;;0.50;;
62332;SDS011;48624;49.812;8.562;2022-09-21T15:17:24;0.60;;;0.30;;
62332;SDS011;48624;49.812;8.562;2022-09-21T15:20:01;0.40;;;0.38;;
62332;SDS011;48624;49.812;8.562;2022-09-21T15:22:42;1.20;;;0.43;;
62332;SDS011;48624;49.812;8.562;2022-09-21T15:25:10;1.42;;;0.60;;
62332;SDS011;48624;49.812;8.562;2022-09-21T15:27:36;0.85;;;0.38;;
62332;SDS011;48624;49.812;8.562;2022-09-21T15:30:03;1.25;;;0.50;;
62332;SDS011;48624;49.812;8.562;2022-09-21T15:32:34;0.55;;;0.43;;
62332;SDS011;48624;49.812;8.562;2022-09-21T15:37:42;0.95;;;0.40;;
62332;SDS011;48624;49.812;8.562;2022-09-21T15:42:57;1.00;;;0.60;;
62332;SDS011;48624;49.812;8.562;2022-09-21T15:48:20;2.08;;;0.75;;
62332;SDS011;48624;49.812;8.562;2022-09-21T15:50:49;0.88;;;0.60;;
62332;SDS011;48624;49.812;8.562;2022-09-21T15:53:58;1.27;;;0.60;;
62332;SDS011;48624;49.812;8.562;2022-09-21T15:56:32;2.22;;;0.40;;
62332;SDS011;48624;49.812;8.562;2022-09-21T15:59:04;1.10;;;0.47;;
62332;SDS011;48624;49.812;8.562;2022-09-21T16:01:39;1.00;;;0.30;;
62332;SDS011;48624;49.812;8.562;2022-09-21T16:04:10;1.17;;;0.47;;
62332;SDS011;48624;49.812;8.562;2022-09-21T16:06:41;0.50;;;0.30;;
62332;SDS011;48624;49.812;8.562;2022-09-21T16:11:48;0.82;;;0.47;;
62332;SDS011;48624;49.812;8.562;2022-09-21T16:14:14;2.50;;;0.57;;
62332;SDS011;48624;49.812;8.562;2022-09-21T16:23:02;0.57;;;0.35;;
62332;SDS011;48624;49.812;8.562;2022-09-21T16:28:01;1.80;;;0.70;;
62332;SDS011;48624;49.812;8.562;2022-09-21T16:34:00;1.98;;;0.80;;
62332;SDS011;48624;49.812;8.562;2022-09-21T16:36:42;0.57;;;0.35;;
62332;SDS011;48624;49.812;8.562;2022-09-21T16:39:09;1.05;;;0.50;;
62332;SDS011;48624;49.812;8.562;2022-09-21T16:41:37;1.20;;;0.80;;
62332;SDS011;48624;49.812;8.562;2022-09-21T16:44:04;0.57;;;0.40;;
62332;SDS011;48624;49.812;8.562;2022-09-21T16:46:33;0.90;;;0.30;;
62332;SDS011;48624;49.812;8.562;2022-09-21T16:49:00;1.45;;;0.68;;
62332;SDS011;48624;49.812;8.562;2022-09-21T16:51:32;0.77;;;0.40;;
62332;SDS011;48624;49.812;8.562;2022-09-21T16:53:57;2.00;;;0.70;;
62332;SDS011;48624;49.812;8.562;2022-09-21T16:56:23;0.85;;;0.52;;
62332;SDS011;48624;49.812;8.562;2022-09-21T16:58:49;0.90;;;0.65;;
62332;SDS011;48624;49.812;8.562;2022-09-21T17:01:15;1.85;;;0.52;;
62332;SDS011;48624;49.812;8.562;2022-09-21T17:03:44;0.77;;;0.52;;
62332;SDS011;48624;49.812;8.562;2022-09-21T17:06:18;1.75;;;0.55;;
62332;SDS011;48624;49.812;8.562;2022-09-21T17:08:45;2.17;;;0.68;;
62332;SDS011;48624;49.812;8.562;2022-09-21T17:11:12;1.65;;;0.90;;
62332;SDS011;48624;49.812;8.562;2022-09-21T17:13:43;1.42;;;0.98;;
62332;SDS011;48624;49.812;8.562;2022-09-21T17:16:10;2.35;;;0.90;;
62332;SDS011;48624;49.812;8.562;2022-09-21T17:18:35;2.03;;;0.90;;
62332;SDS011;48624;49.812;8.562;2022-09-21T17:21:00;0.93;;;0.70;;
62332;SDS011;48624;49.812;8.562;2022-09-21T17:23:29;2.58;;;1.05;;
62332;SDS011;48624;49.812;8.562;2022-09-21T17:25:55;1.35;;;0.80;;
62332;SDS011;48624;49.812;8.562;2022-09-21T17:28:24;2.28;;;0.85;;
62332;SDS011;48624;49.812;8.562;2022-09-21T17:30:50;3.08;;;0.90;;
62332;SDS011;48624;49.812;8.562;2022-09-21T17:33:17;1.55;;;0.90;;
62332;SDS011;48624;49.812;8.562;2022-09-21T17:35:43;2.75;;;1.30;;
62332;SDS011;48624;49.812;8.562;2022-09-21T17:38:09;2.25;;;1.73;;
62332;SDS011;48624;49.812;8.562;2022-09-21T17:40:35;3.05;;;2.13;;
62332;SDS011;48624;49.812;8.562;2022-09-21T17:43:06;3.10;;;1.50;;
62332;SDS011;48624;49.812;8.562;2022-09-21T17:45:39;2.88;;;1.95;;
62332;SDS011;48624;49.812;8.562;2022-09-21T17:48:19;2.08;;;1.50;;
62332;SDS011;48624;49.812;8.562;2022-09-21T17:50:45;1.80;;;1.33;;
62332;SDS011;48624;49.812;8.562;2022-09-21T17:53:12;1.73;;;1.38;;
62332;SDS011;48624;49.812;8.562;2022-09-21T17:55:56;3.20;;;1.70;;
62332;SDS011;48624;49.812;8.562;2022-09-21T18:01:19;4.40;;;2.08;;
62332;SDS011;48624;49.812;8.562;2022-09-21T18:03:58;2.85;;;1.23;;
62332;SDS011;48624;49.812;8.562;2022-09-21T18:06:23;1.88;;;1.20;;
62332;SDS011;48624;49.812;8.562;2022-09-21T18:08:50;1.50;;;1.05;;
62332;SDS011;48624;49.812;8.562;2022-09-21T18:22:14;2.17;;;1.40;;
62332;SDS011;48624;49.812;8.562;2022-09-21T18:24:48;2.00;;;1.40;;
62332;SDS011;48624;49.812;8.562;2022-09-21T18:27:15;4.70;;;1.30;;
62332;SDS011;48624;49.812;8.562;2022-09-21T18:29:44;2.50;;;1.33;;
62332;SDS011;48624;49.812;8.562;2022-09-21T18:35:29;2.63;;;1.77;;
62332;SDS011;48624;49.812;8.562;2022-09-21T18:38:21;6.05;;;3.53;;
62332;SDS011;48624;49.812;8.562;2022-09-21T18:46:10;3.10;;;1.70;;
62332;SDS011;48624;49.812;8.562;2022-09-21T18:51:20;3.30;;;1.58;;
62332;SDS011;48624;49.812;8.562;2022-09-21T18:53:52;2.78;;;1.45;;
62332;SDS011;48624;49.812;8.562;2022-09-21T18:56:20;1.98;;;1.52;;
62332;SDS011;48624;49.812;8.562;2022-09-21T18:59:05;2.42;;;1.58;;